![]() |
EMODnet Physics ERDDAP
Easier access to scientific data |
log in|
Brought to you by EMODnet Physics |
| Dataset Title: | NDBC - Collection of dew point temperature (DEWT) TimeSeries - IN SITU MultiPointTimeSeriesObservation
|
| Institution: | NDBC (Dataset ID: TS_DEWT_NDBC) |
| Information: | Summary
| License
| FGDC
| ISO 19115
| Metadata
| Background
| Subset
| Data Access Form
| Make a graph
|
| Name | Last modified | Size | Description | |
|---|---|---|---|---|
| Parent Directory | - | - | ||
| 44008_TS_DEWT_012000.nc | 24-Dec-2024 00:17 | 443395 | ||
| 44008_TS_DEWT_012001.nc | 24-Dec-2024 00:19 | 437081 | ||
| 44008_TS_DEWT_012002.nc | 24-Dec-2024 00:20 | 448716 | ||
| 44008_TS_DEWT_012003.nc | 24-Dec-2024 00:22 | 448828 | ||
| 44008_TS_DEWT_012004.nc | 24-Dec-2024 00:24 | 448442 | ||
| 44008_TS_DEWT_012005.nc | 24-Dec-2024 00:26 | 449599 | ||
| 44008_TS_DEWT_012006.nc | 24-Dec-2024 00:28 | 431576 | ||
| 44008_TS_DEWT_012007.nc | 24-Dec-2024 00:30 | 430355 | ||
| 44008_TS_DEWT_012008.nc | 24-Dec-2024 00:32 | 449433 | ||
| 44008_TS_DEWT_012009.nc | 24-Dec-2024 00:35 | 431725 | ||
| 44008_TS_DEWT_012012.nc | 24-Dec-2024 00:41 | 449335 | ||
| 44008_TS_DEWT_012015.nc | 24-Dec-2024 00:44 | 448174 | ||
| 44008_TS_DEWT_012016.nc | 24-Dec-2024 00:46 | 450253 | ||
| 44008_TS_DEWT_012020.nc | 24-Dec-2024 00:55 | 448408 | ||
| 44008_TS_DEWT_012022.nc | 24-Dec-2024 01:05 | 449212 | ||
| 44008_TS_DEWT_012026.nc | 02-Feb-2026 17:00 | 448813 | ||
| 44008_TS_DEWT_022000.nc | 24-Dec-2024 00:17 | 440132 | ||
| 44008_TS_DEWT_022001.nc | 24-Dec-2024 00:19 | 451451 | ||
| 44008_TS_DEWT_022002.nc | 24-Dec-2024 00:20 | 450201 | ||
| 44008_TS_DEWT_022003.nc | 24-Dec-2024 00:22 | 449763 | ||
| 44008_TS_DEWT_022004.nc | 24-Dec-2024 00:24 | 450206 | ||
| 44008_TS_DEWT_022005.nc | 24-Dec-2024 00:26 | 1829630 | ||
| 44008_TS_DEWT_022006.nc | 24-Dec-2024 00:28 | 1673282 | ||
| 44008_TS_DEWT_022009.nc | 24-Dec-2024 00:35 | 1825504 | ||
| 44008_TS_DEWT_022012.nc | 24-Dec-2024 00:41 | 1675973 | ||
| 44008_TS_DEWT_022015.nc | 24-Dec-2024 00:44 | 1828139 | ||
| 44008_TS_DEWT_022016.nc | 24-Dec-2024 00:46 | 1832648 | ||
| 44008_TS_DEWT_022020.nc | 24-Dec-2024 00:56 | 1833098 | ||
| 44008_TS_DEWT_022022.nc | 24-Dec-2024 01:06 | 1652960 | ||
| 44008_TS_DEWT_022026.nc | 01-Mar-2026 05:44 | 1646138 | ||
| 44008_TS_DEWT_032000.nc | 24-Dec-2024 00:17 | 1649275 | ||
| 44008_TS_DEWT_032001.nc | 24-Dec-2024 00:19 | 1658168 | ||
| 44008_TS_DEWT_032002.nc | 24-Dec-2024 00:20 | 1652048 | ||
| 44008_TS_DEWT_032004.nc | 24-Dec-2024 00:24 | 1664414 | ||
| 44008_TS_DEWT_032005.nc | 24-Dec-2024 00:26 | 1647192 | ||
| 44008_TS_DEWT_032006.nc | 24-Dec-2024 00:28 | 1656663 | ||
| 44008_TS_DEWT_032007.nc | 24-Dec-2024 00:30 | 1660242 | ||
| 44008_TS_DEWT_032009.nc | 24-Dec-2024 00:35 | 1710034 | ||
| 44008_TS_DEWT_032012.nc | 24-Dec-2024 00:41 | 1616185 | ||
| 44008_TS_DEWT_032015.nc | 24-Dec-2024 00:44 | 1804251 | ||
| 44008_TS_DEWT_032016.nc | 24-Dec-2024 00:47 | 1829115 | ||
| 44008_TS_DEWT_032020.nc | 24-Dec-2024 00:56 | 1826495 | ||
| 44008_TS_DEWT_032022.nc | 24-Dec-2024 01:06 | 1828649 | ||
| 44008_TS_DEWT_032026.nc | 25-Mar-2026 06:37 | 1625447 | ||
| 44008_TS_DEWT_042000.nc | 24-Dec-2024 00:17 | 1307009 | ||
| 44008_TS_DEWT_042001.nc | 24-Dec-2024 00:19 | 1833480 | ||
| 44008_TS_DEWT_042002.nc | 24-Dec-2024 00:21 | 1837615 | ||
| 44008_TS_DEWT_042004.nc | 24-Dec-2024 00:24 | 1680352 | ||
| 44008_TS_DEWT_042005.nc | 24-Dec-2024 00:26 | 1661344 | ||
| 44008_TS_DEWT_042006.nc | 24-Dec-2024 00:29 | 1666602 | ||
| 44008_TS_DEWT_042007.nc | 24-Dec-2024 00:30 | 1673011 | ||
| 44008_TS_DEWT_042009.nc | 24-Dec-2024 00:35 | 1670913 | ||
| 44008_TS_DEWT_042010.nc | 24-Dec-2024 00:37 | 1672329 | ||
| 44008_TS_DEWT_042012.nc | 24-Dec-2024 00:42 | 1666115 | ||
| 44008_TS_DEWT_042015.nc | 24-Dec-2024 00:44 | 1628962 | ||
| 44008_TS_DEWT_042016.nc | 24-Dec-2024 00:47 | 1677809 | ||
| 44008_TS_DEWT_042017.nc | 24-Dec-2024 00:48 | 1676241 | ||
| 44008_TS_DEWT_042022.nc | 24-Dec-2024 01:07 | 1833498 | ||
| 44008_TS_DEWT_052000.nc | 24-Dec-2024 00:17 | 1671369 | ||
| 44008_TS_DEWT_052001.nc | 24-Dec-2024 00:19 | 1790674 | ||
| 44008_TS_DEWT_052002.nc | 24-Dec-2024 00:21 | 1837369 | ||
| 44008_TS_DEWT_052004.nc | 24-Dec-2024 00:25 | 1831365 | ||
| 44008_TS_DEWT_052005.nc | 24-Dec-2024 00:27 | 1826991 | ||
| 44008_TS_DEWT_052006.nc | 24-Dec-2024 00:29 | 1681380 | ||
| 44008_TS_DEWT_052007.nc | 24-Dec-2024 00:31 | 1632785 | ||
| 44008_TS_DEWT_052008.nc | 24-Dec-2024 00:33 | 1832433 | ||
| 44008_TS_DEWT_052009.nc | 24-Dec-2024 00:35 | 1839363 | ||
| 44008_TS_DEWT_052010.nc | 24-Dec-2024 00:37 | 1674921 | ||
| 44008_TS_DEWT_052012.nc | 24-Dec-2024 00:42 | 1306581 | ||
| 44008_TS_DEWT_052015.nc | 24-Dec-2024 00:45 | 1637315 | ||
| 44008_TS_DEWT_052016.nc | 24-Dec-2024 00:47 | 1677573 | ||
| 44008_TS_DEWT_052017.nc | 24-Dec-2024 00:48 | 1673414 | ||
| 44008_TS_DEWT_052019.nc | 24-Dec-2024 00:51 | 1667649 | ||
| 44008_TS_DEWT_052022.nc | 24-Dec-2024 01:07 | 1673099 | ||
| 44008_TS_DEWT_052023.nc | 24-Dec-2024 01:12 | 1676635 | ||
| 44008_TS_DEWT_052025.nc | 01-Jun-2025 04:00 | 1675246 | ||
| 44008_TS_DEWT_062000.nc | 24-Dec-2024 00:18 | 1832514 | ||
| 44008_TS_DEWT_062001.nc | 24-Dec-2024 00:19 | 1825576 | ||
| 44008_TS_DEWT_062002.nc | 24-Dec-2024 00:21 | 1622350 | ||
| 44008_TS_DEWT_062004.nc | 24-Dec-2024 00:25 | 1819214 | ||
| 44008_TS_DEWT_062005.nc | 24-Dec-2024 00:27 | 1678193 | ||
| 44008_TS_DEWT_062006.nc | 24-Dec-2024 00:29 | 1671319 | ||
| 44008_TS_DEWT_062007.nc | 24-Dec-2024 00:31 | 1644666 | ||
| 44008_TS_DEWT_062008.nc | 24-Dec-2024 00:33 | 1830587 | ||
| 44008_TS_DEWT_062009.nc | 24-Dec-2024 00:36 | 1829486 | ||
| 44008_TS_DEWT_062010.nc | 24-Dec-2024 00:37 | 1834470 | ||
| 44008_TS_DEWT_062012.nc | 24-Dec-2024 00:42 | 1832454 | ||
| 44008_TS_DEWT_062015.nc | 24-Dec-2024 00:45 | 1822946 | ||
| 44008_TS_DEWT_062016.nc | 24-Dec-2024 00:47 | 1831529 | ||
| 44008_TS_DEWT_062017.nc | 24-Dec-2024 00:49 | 1668628 | ||
| 44008_TS_DEWT_062019.nc | 24-Dec-2024 00:52 | 1625923 | ||
| 44008_TS_DEWT_062020.nc | 24-Dec-2024 00:57 | 1677291 | ||
| 44008_TS_DEWT_062021.nc | 24-Dec-2024 01:02 | 1834833 | ||
| 44008_TS_DEWT_062023.nc | 24-Dec-2024 01:12 | 1829045 | ||
| 44008_TS_DEWT_062025.nc | 01-Jul-2025 04:01 | 1667872 | ||
| 44008_TS_DEWT_071999.nc | 24-Dec-2024 00:16 | 1671876 | ||
| 44008_TS_DEWT_072000.nc | 24-Dec-2024 00:18 | 1614342 | ||
| 44008_TS_DEWT_072001.nc | 24-Dec-2024 00:19 | 1672425 | ||
| 44008_TS_DEWT_072003.nc | 24-Dec-2024 00:23 | 1659983 | ||
| 44008_TS_DEWT_072004.nc | 24-Dec-2024 00:25 | 1674101 | ||
| 44008_TS_DEWT_072005.nc | 24-Dec-2024 00:27 | 1676580 | ||
| 44008_TS_DEWT_072006.nc | 24-Dec-2024 00:29 | 1678368 | ||
| 44008_TS_DEWT_072007.nc | 24-Dec-2024 00:31 | 1829487 | ||
| 44008_TS_DEWT_072008.nc | 24-Dec-2024 00:33 | 1838802 | ||
| 44008_TS_DEWT_072009.nc | 24-Dec-2024 00:36 | 1675107 | ||
| 44008_TS_DEWT_072010.nc | 24-Dec-2024 00:37 | 1829545 | ||
| 44008_TS_DEWT_072012.nc | 24-Dec-2024 00:42 | 1830738 | ||
| 44008_TS_DEWT_072015.nc | 24-Dec-2024 00:45 | 1633753 | ||
| 44008_TS_DEWT_072016.nc | 24-Dec-2024 00:47 | 1826531 | ||
| 44008_TS_DEWT_072019.nc | 24-Dec-2024 00:52 | 1809369 | ||
| 44008_TS_DEWT_072023.nc | 24-Dec-2024 01:13 | 1599895 | ||
| 44008_TS_DEWT_072025.nc | 01-Aug-2025 04:10 | 1831827 | ||
| 44008_TS_DEWT_081999.nc | 24-Dec-2024 00:16 | 1682684 | ||
| 44008_TS_DEWT_082000.nc | 24-Dec-2024 00:18 | 1669598 | ||
| 44008_TS_DEWT_082001.nc | 24-Dec-2024 00:20 | 1644955 | ||
| 44008_TS_DEWT_082003.nc | 24-Dec-2024 00:23 | 1632974 | ||
| 44008_TS_DEWT_082004.nc | 24-Dec-2024 00:25 | 1669059 | ||
| 44008_TS_DEWT_082005.nc | 24-Dec-2024 00:27 | 1661720 | ||
| 44008_TS_DEWT_082006.nc | 24-Dec-2024 00:29 | 1665109 | ||
| 44008_TS_DEWT_082007.nc | 24-Dec-2024 00:31 | 1681051 | ||
| 44008_TS_DEWT_082008.nc | 24-Dec-2024 00:34 | 1680056 | ||
| 44008_TS_DEWT_082009.nc | 24-Dec-2024 00:36 | 1678236 | ||
| 44008_TS_DEWT_082010.nc | 24-Dec-2024 00:38 | 1830703 | ||
| 44008_TS_DEWT_082012.nc | 24-Dec-2024 00:42 | 1657847 | ||
| 44008_TS_DEWT_082015.nc | 24-Dec-2024 00:45 | 1670373 | ||
| 44008_TS_DEWT_082016.nc | 24-Dec-2024 00:48 | 1833340 | ||
| 44008_TS_DEWT_082019.nc | 24-Dec-2024 00:53 | 1665878 | ||
| 44008_TS_DEWT_082023.nc | 24-Dec-2024 01:13 | 1676359 | ||
| 44008_TS_DEWT_082025.nc | 01-Sep-2025 04:15 | 1838054 | ||
| 44008_TS_DEWT_091999.nc | 24-Dec-2024 00:16 | 1831371 | ||
| 44008_TS_DEWT_092000.nc | 24-Dec-2024 00:18 | 1673613 | ||
| 44008_TS_DEWT_092001.nc | 24-Dec-2024 00:20 | 1804477 | ||
| 44008_TS_DEWT_092003.nc | 24-Dec-2024 00:23 | 418951 | ||
| 44008_TS_DEWT_092004.nc | 24-Dec-2024 00:25 | 419065 | ||
| 44008_TS_DEWT_092005.nc | 24-Dec-2024 00:27 | 419050 | ||
| 44008_TS_DEWT_092006.nc | 24-Dec-2024 00:29 | 446659 | ||
| 44008_TS_DEWT_092007.nc | 24-Dec-2024 00:31 | 426703 | ||
| 44008_TS_DEWT_092008.nc | 24-Dec-2024 00:34 | 431856 | ||
| 44008_TS_DEWT_092009.nc | 24-Dec-2024 00:36 | 450814 | ||
| 44008_TS_DEWT_092012.nc | 24-Dec-2024 00:43 | 436506 | ||
| 44008_TS_DEWT_092015.nc | 24-Dec-2024 00:45 | 1264404 | ||
| 44008_TS_DEWT_092016.nc | 24-Dec-2024 00:48 | 1020379 | ||
| 44008_TS_DEWT_092019.nc | 24-Dec-2024 00:53 | 446806 | ||
| 44008_TS_DEWT_092021.nc | 24-Dec-2024 01:04 | 1263099 | ||
| 44008_TS_DEWT_092023.nc | 24-Dec-2024 01:13 | 1265988 | ||
| 44008_TS_DEWT_092025.nc | 01-Oct-2025 03:52 | 1261578 | ||
| 44008_TS_DEWT_101999.nc | 24-Dec-2024 00:16 | 4376498 | ||
| 44008_TS_DEWT_102000.nc | 24-Dec-2024 00:18 | 3405169 | ||
| 44008_TS_DEWT_102002.nc | 24-Dec-2024 00:22 | 443997 | ||
| 44008_TS_DEWT_102003.nc | 24-Dec-2024 00:23 | 449674 | ||
| 44008_TS_DEWT_102004.nc | 24-Dec-2024 00:25 | 424683 | ||
| 44008_TS_DEWT_102005.nc | 24-Dec-2024 00:27 | 438767 | ||
| 44008_TS_DEWT_102006.nc | 24-Dec-2024 00:29 | 437864 | ||
| 44008_TS_DEWT_102007.nc | 24-Dec-2024 00:32 | 668252 | ||
| 44008_TS_DEWT_102008.nc | 24-Dec-2024 00:34 | 1026244 | ||
| 44008_TS_DEWT_102009.nc | 24-Dec-2024 00:36 | 1010282 | ||
| 44008_TS_DEWT_102012.nc | 24-Dec-2024 00:43 | 1026776 | ||
| 44008_TS_DEWT_102015.nc | 24-Dec-2024 00:46 | 1027557 | ||
| 44008_TS_DEWT_102016.nc | 24-Dec-2024 00:48 | 1026378 | ||
| 44008_TS_DEWT_102019.nc | 24-Dec-2024 00:54 | 3188677 | ||
| 44008_TS_DEWT_102021.nc | 24-Dec-2024 01:04 | 4756661 | ||
| 44008_TS_DEWT_102023.nc | 24-Dec-2024 01:14 | 447531 | ||
| 44008_TS_DEWT_102025.nc | 01-Nov-2025 05:36 | 435569 | ||
| 44008_TS_DEWT_111999.nc | 24-Dec-2024 00:16 | 1263775 | ||
| 44008_TS_DEWT_112000.nc | 24-Dec-2024 00:18 | 1266266 | ||
| 44008_TS_DEWT_112002.nc | 24-Dec-2024 00:22 | 1117257 | ||
| 44008_TS_DEWT_112003.nc | 24-Dec-2024 00:24 | 993011 | ||
| 44008_TS_DEWT_112004.nc | 24-Dec-2024 00:26 | 1264925 | ||
| 44008_TS_DEWT_112005.nc | 24-Dec-2024 00:28 | 1263213 | ||
| 44008_TS_DEWT_112006.nc | 24-Dec-2024 00:30 | 4214036 | ||
| 44008_TS_DEWT_112007.nc | 24-Dec-2024 00:32 | 4031785 | ||
| 44008_TS_DEWT_112008.nc | 24-Dec-2024 00:34 | 449176 | ||
| 44008_TS_DEWT_112009.nc | 24-Dec-2024 00:36 | 451723 | ||
| 44008_TS_DEWT_112011.nc | 24-Dec-2024 00:41 | 1109673 | ||
| 44008_TS_DEWT_112015.nc | 24-Dec-2024 00:46 | 1027778 | ||
| 44008_TS_DEWT_112019.nc | 24-Dec-2024 00:54 | 1108607 | ||
| 44008_TS_DEWT_112021.nc | 24-Dec-2024 01:05 | 1109122 | ||
| 44008_TS_DEWT_112023.nc | 24-Dec-2024 01:14 | 1111307 | ||
| 44008_TS_DEWT_112025.nc | 01-Dec-2025 05:58 | 1109560 | ||
| 44008_TS_DEWT_121999.nc | 24-Dec-2024 00:17 | 4614052 | ||
| 44008_TS_DEWT_122000.nc | 24-Dec-2024 00:18 | 453272 | ||
| 44008_TS_DEWT_122001.nc | 24-Dec-2024 00:20 | 440374 | ||
| 44008_TS_DEWT_122002.nc | 24-Dec-2024 00:22 | 453076 | ||
| 44008_TS_DEWT_122003.nc | 24-Dec-2024 00:24 | 1262526 | ||
| 44008_TS_DEWT_122004.nc | 24-Dec-2024 00:26 | 1261829 | ||
| 44008_TS_DEWT_122005.nc | 24-Dec-2024 00:28 | 1263694 | ||
| 44008_TS_DEWT_122006.nc | 24-Dec-2024 00:30 | 1262004 | ||
| 44008_TS_DEWT_122007.nc | 24-Dec-2024 00:32 | 1262475 | ||
| 44008_TS_DEWT_122008.nc | 24-Dec-2024 00:34 | 1260265 | ||
| 44008_TS_DEWT_122009.nc | 24-Dec-2024 00:37 | 5321230 | ||
| 44008_TS_DEWT_122011.nc | 24-Dec-2024 00:41 | 451782 | ||
| 44008_TS_DEWT_122015.nc | 24-Dec-2024 00:46 | 451953 | ||
| 44008_TS_DEWT_122019.nc | 24-Dec-2024 00:55 | 437336 | ||
| 44008_TS_DEWT_122021.nc | 24-Dec-2024 01:05 | 1110232 | ||
| 44008_TS_DEWT_122023.nc | 24-Dec-2024 01:15 | 1107101 | ||
| 44008_TS_DEWT_122025.nc | 01-Jan-2026 06:06 | 1108679 | ||